sensor_id;sensor_type;location;lat;lon;timestamp;temperature;humidity
19248;DHT22;9758;48.640;8.148;2023-08-07T00:01:03;15.70;57.70
19248;DHT22;9758;48.640;8.148;2023-08-07T00:03:30;15.60;57.60
19248;DHT22;9758;48.640;8.148;2023-08-07T00:05:58;15.60;57.60
19248;DHT22;9758;48.640;8.148;2023-08-07T00:08:25;15.70;57.70
19248;DHT22;9758;48.640;8.148;2023-08-07T00:10:51;15.70;57.70
19248;DHT22;9758;48.640;8.148;2023-08-07T00:13:18;15.70;57.60
19248;DHT22;9758;48.640;8.148;2023-08-07T00:15:45;15.70;57.60
19248;DHT22;9758;48.640;8.148;2023-08-07T00:18:12;15.70;57.70
19248;DHT22;9758;48.640;8.148;2023-08-07T00:20:38;15.70;57.70
19248;DHT22;9758;48.640;8.148;2023-08-07T00:23:06;15.70;57.60
19248;DHT22;9758;48.640;8.148;2023-08-07T00:25:33;15.70;57.60
19248;DHT22;9758;48.640;8.148;2023-08-07T00:28:00;15.70;57.60
19248;DHT22;9758;48.640;8.148;2023-08-07T00:30:27;15.70;57.50
19248;DHT22;9758;48.640;8.148;2023-08-07T00:32:53;15.70;57.60
19248;DHT22;9758;48.640;8.148;2023-08-07T00:35:20;15.70;57.60
19248;DHT22;9758;48.640;8.148;2023-08-07T00:37:47;15.70;57.60
19248;DHT22;9758;48.640;8.148;2023-08-07T00:40:16;15.70;57.50
19248;DHT22;9758;48.640;8.148;2023-08-07T00:42:43;15.70;57.50
19248;DHT22;9758;48.640;8.148;2023-08-07T00:45:10;15.70;57.50
19248;DHT22;9758;48.640;8.148;2023-08-07T00:47:37;15.70;57.50
19248;DHT22;9758;48.640;8.148;2023-08-07T00:50:05;15.70;57.60
19248;DHT22;9758;48.640;8.148;2023-08-07T00:52:32;15.60;57.60
19248;DHT22;9758;48.640;8.148;2023-08-07T00:54:59;15.70;58.20
19248;DHT22;9758;48.640;8.148;2023-08-07T00:57:27;15.70;57.70
19248;DHT22;9758;48.640;8.148;2023-08-07T00:59:54;15.70;57.60
19248;DHT22;9758;48.640;8.148;2023-08-07T01:02:21;15.70;57.50
19248;DHT22;9758;48.640;8.148;2023-08-07T01:04:48;15.70;57.50
19248;DHT22;9758;48.640;8.148;2023-08-07T01:07:15;15.70;57.60
19248;DHT22;9758;48.640;8.148;2023-08-07T01:09:42;15.70;57.50
19248;DHT22;9758;48.640;8.148;2023-08-07T01:12:15;15.70;57.40
19248;DHT22;9758;48.640;8.148;2023-08-07T01:14:50;15.70;57.40
19248;DHT22;9758;48.640;8.148;2023-08-07T01:17:20;15.60;57.40
19248;DHT22;9758;48.640;8.148;2023-08-07T01:19:50;15.60;57.40
19248;DHT22;9758;48.640;8.148;2023-08-07T01:22:18;15.60;57.40
19248;DHT22;9758;48.640;8.148;2023-08-07T01:24:47;15.50;57.40
19248;DHT22;9758;48.640;8.148;2023-08-07T01:27:34;15.50;57.50
19248;DHT22;9758;48.640;8.148;2023-08-07T01:30:09;15.50;57.50
19248;DHT22;9758;48.640;8.148;2023-08-07T01:32:43;15.50;57.50
19248;DHT22;9758;48.640;8.148;2023-08-07T01:35:14;15.40;57.40
19248;DHT22;9758;48.640;8.148;2023-08-07T01:37:45;15.40;57.40
19248;DHT22;9758;48.640;8.148;2023-08-07T01:40:13;15.40;57.40
19248;DHT22;9758;48.640;8.148;2023-08-07T01:42:41;15.40;57.40
19248;DHT22;9758;48.640;8.148;2023-08-07T01:45:08;15.40;57.50
19248;DHT22;9758;48.640;8.148;2023-08-07T01:47:35;15.30;57.40
19248;DHT22;9758;48.640;8.148;2023-08-07T01:50:02;15.40;57.50
19248;DHT22;9758;48.640;8.148;2023-08-07T01:52:29;15.30;57.40
19248;DHT22;9758;48.640;8.148;2023-08-07T01:54:57;15.30;57.40
19248;DHT22;9758;48.640;8.148;2023-08-07T01:57:23;15.30;57.40
19248;DHT22;9758;48.640;8.148;2023-08-07T01:59:51;15.30;57.50
19248;DHT22;9758;48.640;8.148;2023-08-07T02:02:18;15.20;57.40
19248;DHT22;9758;48.640;8.148;2023-08-07T02:04:45;15.20;57.40
19248;DHT22;9758;48.640;8.148;2023-08-07T02:07:12;15.20;57.50
19248;DHT22;9758;48.640;8.148;2023-08-07T02:09:38;15.20;57.50
19248;DHT22;9758;48.640;8.148;2023-08-07T02:12:07;15.20;57.50
19248;DHT22;9758;48.640;8.148;2023-08-07T02:14:53;15.20;57.50
19248;DHT22;9758;48.640;8.148;2023-08-07T02:17:20;15.10;57.50
19248;DHT22;9758;48.640;8.148;2023-08-07T02:19:47;15.10;57.50
19248;DHT22;9758;48.640;8.148;2023-08-07T02:22:14;15.10;57.50
19248;DHT22;9758;48.640;8.148;2023-08-07T02:24:40;15.10;57.50
19248;DHT22;9758;48.640;8.148;2023-08-07T02:27:09;15.10;57.50
19248;DHT22;9758;48.640;8.148;2023-08-07T02:29:35;15.10;57.60
19248;DHT22;9758;48.640;8.148;2023-08-07T02:32:04;15.10;57.70
19248;DHT22;9758;48.640;8.148;2023-08-07T02:34:31;15.00;57.50
19248;DHT22;9758;48.640;8.148;2023-08-07T02:36:57;15.00;57.50
19248;DHT22;9758;48.640;8.148;2023-08-07T02:39:24;15.00;57.50
19248;DHT22;9758;48.640;8.148;2023-08-07T02:41:51;15.00;57.50
19248;DHT22;9758;48.640;8.148;2023-08-07T02:44:19;15.00;57.50
19248;DHT22;9758;48.640;8.148;2023-08-07T02:46:46;15.00;57.50
19248;DHT22;9758;48.640;8.148;2023-08-07T02:49:13;15.00;57.60
19248;DHT22;9758;48.640;8.148;2023-08-07T02:51:40;15.00;57.60
19248;DHT22;9758;48.640;8.148;2023-08-07T02:54:06;15.00;57.60
19248;DHT22;9758;48.640;8.148;2023-08-07T02:56:33;14.90;57.60
19248;DHT22;9758;48.640;8.148;2023-08-07T02:59:00;14.90;57.60
19248;DHT22;9758;48.640;8.148;2023-08-07T03:01:28;14.90;57.70
19248;DHT22;9758;48.640;8.148;2023-08-07T03:03:55;15.00;57.90
19248;DHT22;9758;48.640;8.148;2023-08-07T03:06:22;15.00;57.80
19248;DHT22;9758;48.640;8.148;2023-08-07T03:08:48;15.00;57.80
19248;DHT22;9758;48.640;8.148;2023-08-07T03:11:15;15.00;57.80
19248;DHT22;9758;48.640;8.148;2023-08-07T03:13:42;15.10;57.80
19248;DHT22;9758;48.640;8.148;2023-08-07T03:16:09;15.10;57.80
19248;DHT22;9758;48.640;8.148;2023-08-07T03:18:37;15.10;57.80
19248;DHT22;9758;48.640;8.148;2023-08-07T03:21:04;15.10;57.80
19248;DHT22;9758;48.640;8.148;2023-08-07T03:23:31;15.20;57.80
19248;DHT22;9758;48.640;8.148;2023-08-07T03:26:04;15.20;57.70
19248;DHT22;9758;48.640;8.148;2023-08-07T03:28:32;15.20;57.80
19248;DHT22;9758;48.640;8.148;2023-08-07T03:30:59;15.20;57.70
19248;DHT22;9758;48.640;8.148;2023-08-07T03:33:26;15.20;57.60
19248;DHT22;9758;48.640;8.148;2023-08-07T03:35:54;15.30;57.60
19248;DHT22;9758;48.640;8.148;2023-08-07T03:38:21;15.30;57.60
19248;DHT22;9758;48.640;8.148;2023-08-07T03:40:47;15.30;57.60
19248;DHT22;9758;48.640;8.148;2023-08-07T03:43:14;15.30;57.60
19248;DHT22;9758;48.640;8.148;2023-08-07T03:45:41;15.30;57.60
19248;DHT22;9758;48.640;8.148;2023-08-07T03:48:08;15.30;57.60
19248;DHT22;9758;48.640;8.148;2023-08-07T03:50:34;15.30;57.50
19248;DHT22;9758;48.640;8.148;2023-08-07T03:53:04;15.40;57.60
19248;DHT22;9758;48.640;8.148;2023-08-07T03:55:32;15.40;57.50
19248;DHT22;9758;48.640;8.148;2023-08-07T03:57:59;15.40;57.50
19248;DHT22;9758;48.640;8.148;2023-08-07T04:00:25;15.40;57.50
19248;DHT22;9758;48.640;8.148;2023-08-07T04:02:52;15.50;57.50
19248;DHT22;9758;48.640;8.148;2023-08-07T04:05:19;15.50;57.50
19248;DHT22;9758;48.640;8.148;2023-08-07T04:07:45;15.50;57.50
19248;DHT22;9758;48.640;8.148;2023-08-07T04:10:14;15.50;57.40
19248;DHT22;9758;48.640;8.148;2023-08-07T04:12:40;15.50;57.40
19248;DHT22;9758;48.640;8.148;2023-08-07T04:15:08;15.50;58.00
19248;DHT22;9758;48.640;8.148;2023-08-07T04:17:35;15.50;57.40
19248;DHT22;9758;48.640;8.148;2023-08-07T04:20:02;15.50;57.50
19248;DHT22;9758;48.640;8.148;2023-08-07T04:22:30;15.50;57.50
19248;DHT22;9758;48.640;8.148;2023-08-07T04:24:57;15.50;57.40
19248;DHT22;9758;48.640;8.148;2023-08-07T04:27:26;15.50;57.40
19248;DHT22;9758;48.640;8.148;2023-08-07T04:29:53;15.50;57.50
19248;DHT22;9758;48.640;8.148;2023-08-07T04:32:20;15.50;57.40
19248;DHT22;9758;48.640;8.148;2023-08-07T04:34:46;15.50;57.40
19248;DHT22;9758;48.640;8.148;2023-08-07T04:37:13;15.60;57.40
19248;DHT22;9758;48.640;8.148;2023-08-07T04:39:40;15.50;57.40
19248;DHT22;9758;48.640;8.148;2023-08-07T04:42:07;15.50;57.40
19248;DHT22;9758;48.640;8.148;2023-08-07T04:44:35;15.60;57.40
19248;DHT22;9758;48.640;8.148;2023-08-07T04:47:02;15.60;57.40
19248;DHT22;9758;48.640;8.148;2023-08-07T04:49:28;15.60;57.40
19248;DHT22;9758;48.640;8.148;2023-08-07T04:51:55;15.60;57.40
19248;DHT22;9758;48.640;8.148;2023-08-07T04:54:22;15.50;57.40
19248;DHT22;9758;48.640;8.148;2023-08-07T04:56:48;15.60;57.40
19248;DHT22;9758;48.640;8.148;2023-08-07T04:59:15;15.50;57.80
19248;DHT22;9758;48.640;8.148;2023-08-07T05:01:43;15.50;57.70
19248;DHT22;9758;48.640;8.148;2023-08-07T05:04:10;15.60;57.70
19248;DHT22;9758;48.640;8.148;2023-08-07T05:06:36;15.60;57.60
19248;DHT22;9758;48.640;8.148;2023-08-07T05:09:03;15.60;57.60
19248;DHT22;9758;48.640;8.148;2023-08-07T05:11:30;15.60;57.50
19248;DHT22;9758;48.640;8.148;2023-08-07T05:13:57;15.60;57.50
19248;DHT22;9758;48.640;8.148;2023-08-07T05:16:24;15.60;57.50
19248;DHT22;9758;48.640;8.148;2023-08-07T05:18:53;15.60;57.50
19248;DHT22;9758;48.640;8.148;2023-08-07T05:21:19;15.60;57.50
19248;DHT22;9758;48.640;8.148;2023-08-07T05:23:46;15.60;57.40
19248;DHT22;9758;48.640;8.148;2023-08-07T05:26:13;15.60;57.50
19248;DHT22;9758;48.640;8.148;2023-08-07T05:28:39;15.60;57.50
19248;DHT22;9758;48.640;8.148;2023-08-07T05:31:06;15.60;57.50
19248;DHT22;9758;48.640;8.148;2023-08-07T05:33:33;15.60;57.50
19248;DHT22;9758;48.640;8.148;2023-08-07T05:36:01;15.60;57.40
19248;DHT22;9758;48.640;8.148;2023-08-07T05:38:28;15.60;57.40
19248;DHT22;9758;48.640;8.148;2023-08-07T05:40:55;15.60;57.50
19248;DHT22;9758;48.640;8.148;2023-08-07T05:43:22;15.60;57.50
19248;DHT22;9758;48.640;8.148;2023-08-07T05:45:48;15.60;57.50
19248;DHT22;9758;48.640;8.148;2023-08-07T05:48:16;15.60;57.60
19248;DHT22;9758;48.640;8.148;2023-08-07T05:50:43;15.70;57.50
19248;DHT22;9758;48.640;8.148;2023-08-07T05:53:11;15.70;57.50
19248;DHT22;9758;48.640;8.148;2023-08-07T05:55:39;15.60;57.50
19248;DHT22;9758;48.640;8.148;2023-08-07T05:58:07;15.60;57.40
19248;DHT22;9758;48.640;8.148;2023-08-07T06:00:34;15.60;57.50
19248;DHT22;9758;48.640;8.148;2023-08-07T06:03:01;15.60;57.60
19248;DHT22;9758;48.640;8.148;2023-08-07T06:05:27;15.60;57.50
19248;DHT22;9758;48.640;8.148;2023-08-07T06:07:55;15.70;57.60
19248;DHT22;9758;48.640;8.148;2023-08-07T06:10:23;15.70;57.60
19248;DHT22;9758;48.640;8.148;2023-08-07T06:12:50;15.70;57.60
19248;DHT22;9758;48.640;8.148;2023-08-07T06:15:17;15.80;57.50
19248;DHT22;9758;48.640;8.148;2023-08-07T06:17:44;15.70;57.50
19248;DHT22;9758;48.640;8.148;2023-08-07T06:20:11;15.80;57.50
19248;DHT22;9758;48.640;8.148;2023-08-07T06:22:39;15.80;57.50
19248;DHT22;9758;48.640;8.148;2023-08-07T06:25:07;15.80;57.40
19248;DHT22;9758;48.640;8.148;2023-08-07T06:27:35;15.80;57.40
19248;DHT22;9758;48.640;8.148;2023-08-07T06:30:02;15.90;57.50
19248;DHT22;9758;48.640;8.148;2023-08-07T06:32:29;15.80;57.50
19248;DHT22;9758;48.640;8.148;2023-08-07T06:34:55;15.90;57.50
19248;DHT22;9758;48.640;8.148;2023-08-07T06:37:22;15.90;57.50
19248;DHT22;9758;48.640;8.148;2023-08-07T06:39:49;15.90;57.50
19248;DHT22;9758;48.640;8.148;2023-08-07T06:42:16;15.90;57.60
19248;DHT22;9758;48.640;8.148;2023-08-07T06:44:44;15.90;57.50
19248;DHT22;9758;48.640;8.148;2023-08-07T06:47:11;16.00;57.50
19248;DHT22;9758;48.640;8.148;2023-08-07T06:49:38;16.00;57.50
19248;DHT22;9758;48.640;8.148;2023-08-07T06:52:05;16.10;57.50
19248;DHT22;9758;48.640;8.148;2023-08-07T06:54:32;16.10;57.50
19248;DHT22;9758;48.640;8.148;2023-08-07T06:56:59;16.20;57.50
19248;DHT22;9758;48.640;8.148;2023-08-07T06:59:25;16.30;57.50
19248;DHT22;9758;48.640;8.148;2023-08-07T07:01:53;16.40;57.50
19248;DHT22;9758;48.640;8.148;2023-08-07T07:04:20;16.40;57.40
19248;DHT22;9758;48.640;8.148;2023-08-07T07:06:47;16.50;57.40
19248;DHT22;9758;48.640;8.148;2023-08-07T07:09:14;16.50;57.30
19248;DHT22;9758;48.640;8.148;2023-08-07T07:11:42;16.60;57.20
19248;DHT22;9758;48.640;8.148;2023-08-07T07:14:09;16.60;57.30
19248;DHT22;9758;48.640;8.148;2023-08-07T07:16:36;16.60;57.20
19248;DHT22;9758;48.640;8.148;2023-08-07T07:19:08;16.70;57.30
19248;DHT22;9758;48.640;8.148;2023-08-07T07:21:35;16.70;57.20
19248;DHT22;9758;48.640;8.148;2023-08-07T07:24:02;16.70;57.10
19248;DHT22;9758;48.640;8.148;2023-08-07T07:26:29;16.70;57.20
19248;DHT22;9758;48.640;8.148;2023-08-07T07:28:56;16.80;57.20
19248;DHT22;9758;48.640;8.148;2023-08-07T07:31:23;16.80;57.20
19248;DHT22;9758;48.640;8.148;2023-08-07T07:33:49;16.90;57.40
19248;DHT22;9758;48.640;8.148;2023-08-07T07:36:18;16.90;57.20
19248;DHT22;9758;48.640;8.148;2023-08-07T07:38:46;17.00;57.10
19248;DHT22;9758;48.640;8.148;2023-08-07T07:41:13;17.00;57.00
19248;DHT22;9758;48.640;8.148;2023-08-07T07:43:40;17.00;57.00
19248;DHT22;9758;48.640;8.148;2023-08-07T07:46:07;17.10;57.10
19248;DHT22;9758;48.640;8.148;2023-08-07T07:48:33;17.10;57.10
19248;DHT22;9758;48.640;8.148;2023-08-07T07:51:01;17.20;57.10
19248;DHT22;9758;48.640;8.148;2023-08-07T07:53:29;17.30;57.10
19248;DHT22;9758;48.640;8.148;2023-08-07T07:55:57;17.40;57.10
19248;DHT22;9758;48.640;8.148;2023-08-07T07:58:23;17.40;57.00
19248;DHT22;9758;48.640;8.148;2023-08-07T08:00:50;17.40;56.90
19248;DHT22;9758;48.640;8.148;2023-08-07T08:03:19;17.50;56.90
19248;DHT22;9758;48.640;8.148;2023-08-07T08:05:48;17.50;57.00
19248;DHT22;9758;48.640;8.148;2023-08-07T08:08:15;17.60;57.00
19248;DHT22;9758;48.640;8.148;2023-08-07T08:10:44;17.70;57.00
19248;DHT22;9758;48.640;8.148;2023-08-07T08:13:12;17.80;56.90
19248;DHT22;9758;48.640;8.148;2023-08-07T08:15:39;17.80;56.80
19248;DHT22;9758;48.640;8.148;2023-08-07T08:18:06;17.90;56.70
19248;DHT22;9758;48.640;8.148;2023-08-07T08:20:32;17.90;56.40
19248;DHT22;9758;48.640;8.148;2023-08-07T08:22:59;18.00;56.10
19248;DHT22;9758;48.640;8.148;2023-08-07T08:25:26;18.00;56.30
19248;DHT22;9758;48.640;8.148;2023-08-07T08:27:54;18.00;56.10
19248;DHT22;9758;48.640;8.148;2023-08-07T08:30:21;18.00;56.00
19248;DHT22;9758;48.640;8.148;2023-08-07T08:32:48;18.00;55.80
19248;DHT22;9758;48.640;8.148;2023-08-07T08:35:27;18.00;55.60
19248;DHT22;9758;48.640;8.148;2023-08-07T08:37:54;18.00;55.60
19248;DHT22;9758;48.640;8.148;2023-08-07T08:40:20;18.00;55.80
19248;DHT22;9758;48.640;8.148;2023-08-07T08:42:47;18.10;55.80
19248;DHT22;9758;48.640;8.148;2023-08-07T08:45:16;18.10;55.10
19248;DHT22;9758;48.640;8.148;2023-08-07T08:47:43;18.10;55.00
19248;DHT22;9758;48.640;8.148;2023-08-07T08:50:13;18.10;55.50
19248;DHT22;9758;48.640;8.148;2023-08-07T08:52:42;18.10;54.70
19248;DHT22;9758;48.640;8.148;2023-08-07T08:55:11;18.10;55.40
19248;DHT22;9758;48.640;8.148;2023-08-07T08:57:39;18.10;55.50
19248;DHT22;9758;48.640;8.148;2023-08-07T09:00:07;18.20;55.40
19248;DHT22;9758;48.640;8.148;2023-08-07T09:02:45;18.20;55.30
19248;DHT22;9758;48.640;8.148;2023-08-07T09:05:13;18.30;55.30
19248;DHT22;9758;48.640;8.148;2023-08-07T09:07:40;18.40;55.00
19248;DHT22;9758;48.640;8.148;2023-08-07T09:10:09;18.30;54.60
19248;DHT22;9758;48.640;8.148;2023-08-07T09:12:40;18.30;54.80
19248;DHT22;9758;48.640;8.148;2023-08-07T09:15:09;18.30;54.60
19248;DHT22;9758;48.640;8.148;2023-08-07T09:17:39;18.30;54.70
19248;DHT22;9758;48.640;8.148;2023-08-07T09:20:09;18.20;54.40
19248;DHT22;9758;48.640;8.148;2023-08-07T09:22:38;18.20;54.40
19248;DHT22;9758;48.640;8.148;2023-08-07T09:25:06;18.10;54.80
19248;DHT22;9758;48.640;8.148;2023-08-07T09:27:35;18.20;54.50
19248;DHT22;9758;48.640;8.148;2023-08-07T09:30:05;18.20;54.60
19248;DHT22;9758;48.640;8.148;2023-08-07T09:32:33;18.20;54.30
19248;DHT22;9758;48.640;8.148;2023-08-07T09:35:02;18.20;54.60
19248;DHT22;9758;48.640;8.148;2023-08-07T09:37:31;18.30;54.40
19248;DHT22;9758;48.640;8.148;2023-08-07T09:40:00;18.40;54.40
19248;DHT22;9758;48.640;8.148;2023-08-07T09:42:30;18.50;54.70
19248;DHT22;9758;48.640;8.148;2023-08-07T09:44:57;18.60;54.80
19248;DHT22;9758;48.640;8.148;2023-08-07T09:47:25;18.80;54.50
19248;DHT22;9758;48.640;8.148;2023-08-07T09:49:54;18.80;53.70
19248;DHT22;9758;48.640;8.148;2023-08-07T09:52:21;18.80;54.10
19248;DHT22;9758;48.640;8.148;2023-08-07T09:54:49;18.90;54.00
19248;DHT22;9758;48.640;8.148;2023-08-07T09:57:16;19.00;53.90
19248;DHT22;9758;48.640;8.148;2023-08-07T09:59:49;19.00;54.00
19248;DHT22;9758;48.640;8.148;2023-08-07T10:02:17;19.00;53.50
19248;DHT22;9758;48.640;8.148;2023-08-07T10:04:43;19.00;53.60
19248;DHT22;9758;48.640;8.148;2023-08-07T10:07:11;19.00;53.80
19248;DHT22;9758;48.640;8.148;2023-08-07T10:09:41;19.10;53.90
19248;DHT22;9758;48.640;8.148;2023-08-07T10:12:11;19.20;53.90
19248;DHT22;9758;48.640;8.148;2023-08-07T10:14:40;19.30;54.10
19248;DHT22;9758;48.640;8.148;2023-08-07T10:17:08;19.40;54.10
19248;DHT22;9758;48.640;8.148;2023-08-07T10:19:35;19.60;53.60
19248;DHT22;9758;48.640;8.148;2023-08-07T10:22:05;19.70;53.70
19248;DHT22;9758;48.640;8.148;2023-08-07T10:24:34;19.70;53.00
19248;DHT22;9758;48.640;8.148;2023-08-07T10:27:03;19.80;52.70
19248;DHT22;9758;48.640;8.148;2023-08-07T10:29:32;19.70;52.70
19248;DHT22;9758;48.640;8.148;2023-08-07T10:32:00;19.70;53.00
19248;DHT22;9758;48.640;8.148;2023-08-07T10:34:30;19.70;53.20
19248;DHT22;9758;48.640;8.148;2023-08-07T10:36:59;19.80;53.10
19248;DHT22;9758;48.640;8.148;2023-08-07T10:39:27;19.80;52.80
19248;DHT22;9758;48.640;8.148;2023-08-07T10:41:55;19.90;52.70
19248;DHT22;9758;48.640;8.148;2023-08-07T10:44:22;20.00;52.40
19248;DHT22;9758;48.640;8.148;2023-08-07T10:46:52;19.90;52.50
19248;DHT22;9758;48.640;8.148;2023-08-07T10:49:33;19.80;52.60
19248;DHT22;9758;48.640;8.148;2023-08-07T10:52:03;19.90;52.60
19248;DHT22;9758;48.640;8.148;2023-08-07T10:54:30;19.80;52.30
19248;DHT22;9758;48.640;8.148;2023-08-07T10:57:10;19.80;51.90
19248;DHT22;9758;48.640;8.148;2023-08-07T10:59:38;19.70;52.60
19248;DHT22;9758;48.640;8.148;2023-08-07T11:02:23;19.70;52.40
19248;DHT22;9758;48.640;8.148;2023-08-07T11:04:50;19.80;52.10
19248;DHT22;9758;48.640;8.148;2023-08-07T11:07:23;19.80;52.50
19248;DHT22;9758;48.640;8.148;2023-08-07T11:09:50;19.90;52.70
19248;DHT22;9758;48.640;8.148;2023-08-07T11:12:19;19.90;52.60
19248;DHT22;9758;48.640;8.148;2023-08-07T11:14:46;20.00;52.50
19248;DHT22;9758;48.640;8.148;2023-08-07T11:17:16;20.20;52.30
19248;DHT22;9758;48.640;8.148;2023-08-07T11:19:44;20.30;52.30
19248;DHT22;9758;48.640;8.148;2023-08-07T11:22:23;20.40;52.50
19248;DHT22;9758;48.640;8.148;2023-08-07T11:24:51;20.50;52.20
19248;DHT22;9758;48.640;8.148;2023-08-07T11:27:20;20.50;51.80
19248;DHT22;9758;48.640;8.148;2023-08-07T11:29:51;20.40;51.60
19248;DHT22;9758;48.640;8.148;2023-08-07T11:32:21;20.30;50.60
19248;DHT22;9758;48.640;8.148;2023-08-07T11:34:49;20.10;51.20
19248;DHT22;9758;48.640;8.148;2023-08-07T11:37:18;20.00;51.60
19248;DHT22;9758;48.640;8.148;2023-08-07T11:39:46;19.90;51.70
19248;DHT22;9758;48.640;8.148;2023-08-07T11:42:14;19.90;51.60
19248;DHT22;9758;48.640;8.148;2023-08-07T11:44:52;19.90;52.00
19248;DHT22;9758;48.640;8.148;2023-08-07T11:47:39;20.00;51.90
19248;DHT22;9758;48.640;8.148;2023-08-07T11:50:20;20.10;51.60
19248;DHT22;9758;48.640;8.148;2023-08-07T11:52:49;20.10;52.00
19248;DHT22;9758;48.640;8.148;2023-08-07T11:55:18;20.30;52.10
19248;DHT22;9758;48.640;8.148;2023-08-07T11:57:46;20.30;52.00
19248;DHT22;9758;48.640;8.148;2023-08-07T12:00:13;20.40;52.00
19248;DHT22;9758;48.640;8.148;2023-08-07T12:02:45;20.60;52.00
19248;DHT22;9758;48.640;8.148;2023-08-07T12:05:13;20.60;51.70
19248;DHT22;9758;48.640;8.148;2023-08-07T12:07:44;20.70;50.90
19248;DHT22;9758;48.640;8.148;2023-08-07T12:10:16;20.60;51.00
19248;DHT22;9758;48.640;8.148;2023-08-07T12:12:46;20.50;51.20
19248;DHT22;9758;48.640;8.148;2023-08-07T12:15:13;20.50;51.50
19248;DHT22;9758;48.640;8.148;2023-08-07T12:17:45;20.50;52.00
19248;DHT22;9758;48.640;8.148;2023-08-07T12:20:15;20.70;52.30
19248;DHT22;9758;48.640;8.148;2023-08-07T12:22:44;20.90;52.30
19248;DHT22;9758;48.640;8.148;2023-08-07T12:25:23;21.10;51.90
19248;DHT22;9758;48.640;8.148;2023-08-07T12:27:57;21.30;51.80
19248;DHT22;9758;48.640;8.148;2023-08-07T12:30:24;21.40;51.40
19248;DHT22;9758;48.640;8.148;2023-08-07T12:32:52;21.50;51.30
19248;DHT22;9758;48.640;8.148;2023-08-07T12:35:21;21.50;51.10
19248;DHT22;9758;48.640;8.148;2023-08-07T12:37:48;21.40;51.00
19248;DHT22;9758;48.640;8.148;2023-08-07T12:40:15;21.40;51.00
19248;DHT22;9758;48.640;8.148;2023-08-07T12:42:46;21.40;51.30
19248;DHT22;9758;48.640;8.148;2023-08-07T12:45:14;21.50;51.40
19248;DHT22;9758;48.640;8.148;2023-08-07T12:47:41;21.60;51.20
19248;DHT22;9758;48.640;8.148;2023-08-07T12:50:12;21.70;51.40
19248;DHT22;9758;48.640;8.148;2023-08-07T12:52:54;21.80;51.30
19248;DHT22;9758;48.640;8.148;2023-08-07T12:55:22;22.00;51.20
19248;DHT22;9758;48.640;8.148;2023-08-07T12:57:52;22.00;50.90
19248;DHT22;9758;48.640;8.148;2023-08-07T13:00:22;22.10;50.90
19248;DHT22;9758;48.640;8.148;2023-08-07T13:02:50;22.10;51.00
19248;DHT22;9758;48.640;8.148;2023-08-07T13:05:38;22.10;50.50
19248;DHT22;9758;48.640;8.148;2023-08-07T13:08:21;22.10;50.40
19248;DHT22;9758;48.640;8.148;2023-08-07T13:11:10;22.00;50.20
19248;DHT22;9758;48.640;8.148;2023-08-07T13:13:52;21.80;50.60
19248;DHT22;9758;48.640;8.148;2023-08-07T13:16:20;21.80;50.10
19248;DHT22;9758;48.640;8.148;2023-08-07T13:18:47;21.60;49.80
19248;DHT22;9758;48.640;8.148;2023-08-07T13:21:16;21.40;50.10
19248;DHT22;9758;48.640;8.148;2023-08-07T13:23:45;21.30;50.40
19248;DHT22;9758;48.640;8.148;2023-08-07T13:26:12;21.30;50.90
19248;DHT22;9758;48.640;8.148;2023-08-07T13:28:41;21.30;50.90
19248;DHT22;9758;48.640;8.148;2023-08-07T13:31:08;21.40;50.90
19248;DHT22;9758;48.640;8.148;2023-08-07T13:33:37;21.50;50.90
19248;DHT22;9758;48.640;8.148;2023-08-07T13:36:04;21.60;50.10
19248;DHT22;9758;48.640;8.148;2023-08-07T13:38:32;21.50;49.60
19248;DHT22;9758;48.640;8.148;2023-08-07T13:40:59;21.40;50.00
19248;DHT22;9758;48.640;8.148;2023-08-07T13:43:28;21.30;50.30
19248;DHT22;9758;48.640;8.148;2023-08-07T13:45:55;21.30;50.00
19248;DHT22;9758;48.640;8.148;2023-08-07T13:48:22;21.30;50.00
19248;DHT22;9758;48.640;8.148;2023-08-07T13:50:52;21.30;50.20
19248;DHT22;9758;48.640;8.148;2023-08-07T13:53:21;21.30;50.40
19248;DHT22;9758;48.640;8.148;2023-08-07T13:55:50;21.40;50.20
19248;DHT22;9758;48.640;8.148;2023-08-07T13:58:17;21.40;50.00
19248;DHT22;9758;48.640;8.148;2023-08-07T14:00:44;21.40;49.90
19248;DHT22;9758;48.640;8.148;2023-08-07T14:03:12;21.40;50.30
19248;DHT22;9758;48.640;8.148;2023-08-07T14:05:40;21.50;50.30
19248;DHT22;9758;48.640;8.148;2023-08-07T14:08:07;21.60;50.30
19248;DHT22;9758;48.640;8.148;2023-08-07T14:10:36;21.80;49.90
19248;DHT22;9758;48.640;8.148;2023-08-07T14:13:05;21.90;50.20
19248;DHT22;9758;48.640;8.148;2023-08-07T14:15:32;22.10;50.30
19248;DHT22;9758;48.640;8.148;2023-08-07T14:18:00;22.30;50.40
19248;DHT22;9758;48.640;8.148;2023-08-07T14:20:27;22.50;49.30
19248;DHT22;9758;48.640;8.148;2023-08-07T14:22:54;22.60;49.40
19248;DHT22;9758;48.640;8.148;2023-08-07T14:25:21;22.70;48.80
19248;DHT22;9758;48.640;8.148;2023-08-07T14:27:49;22.60;49.30
19248;DHT22;9758;48.640;8.148;2023-08-07T14:30:19;22.60;49.40
19248;DHT22;9758;48.640;8.148;2023-08-07T14:32:46;22.60;48.80
19248;DHT22;9758;48.640;8.148;2023-08-07T14:35:13;22.60;49.00
19248;DHT22;9758;48.640;8.148;2023-08-07T14:37:40;22.60;49.30
19248;DHT22;9758;48.640;8.148;2023-08-07T14:40:08;22.60;48.60
19248;DHT22;9758;48.640;8.148;2023-08-07T14:42:35;22.60;49.30
19248;DHT22;9758;48.640;8.148;2023-08-07T14:45:01;22.70;49.30
19248;DHT22;9758;48.640;8.148;2023-08-07T14:47:30;22.80;49.40
19248;DHT22;9758;48.640;8.148;2023-08-07T14:49:58;23.00;49.50
19248;DHT22;9758;48.640;8.148;2023-08-07T14:52:25;23.20;48.70
19248;DHT22;9758;48.640;8.148;2023-08-07T14:54:51;23.10;48.30
19248;DHT22;9758;48.640;8.148;2023-08-07T14:57:21;23.10;48.30
19248;DHT22;9758;48.640;8.148;2023-08-07T14:59:49;23.00;48.20
19248;DHT22;9758;48.640;8.148;2023-08-07T15:02:16;23.00;48.30
19248;DHT22;9758;48.640;8.148;2023-08-07T15:04:44;23.00;48.50
19248;DHT22;9758;48.640;8.148;2023-08-07T15:07:12;22.90;48.20
19248;DHT22;9758;48.640;8.148;2023-08-07T15:09:39;22.90;48.50
19248;DHT22;9758;48.640;8.148;2023-08-07T15:12:06;23.00;48.70
19248;DHT22;9758;48.640;8.148;2023-08-07T15:14:33;23.00;48.80
19248;DHT22;9758;48.640;8.148;2023-08-07T15:17:00;23.10;48.90
19248;DHT22;9758;48.640;8.148;2023-08-07T15:19:27;23.30;48.00
19248;DHT22;9758;48.640;8.148;2023-08-07T15:21:55;23.40;48.40
19248;DHT22;9758;48.640;8.148;2023-08-07T15:24:22;23.50;48.40
19248;DHT22;9758;48.640;8.148;2023-08-07T15:26:49;23.60;48.60
19248;DHT22;9758;48.640;8.148;2023-08-07T15:29:15;24.00;50.00
19248;DHT22;9758;48.640;8.148;2023-08-07T15:31:43;24.90;50.30
19248;DHT22;9758;48.640;8.148;2023-08-07T15:34:16;25.90;50.20
19248;DHT22;9758;48.640;8.148;2023-08-07T15:36:42;27.10;49.50
19248;DHT22;9758;48.640;8.148;2023-08-07T15:39:10;28.10;48.30
19248;DHT22;9758;48.640;8.148;2023-08-07T15:41:38;28.90;47.60
19248;DHT22;9758;48.640;8.148;2023-08-07T15:44:08;29.70;47.10
19248;DHT22;9758;48.640;8.148;2023-08-07T15:46:35;30.50;42.60
19248;DHT22;9758;48.640;8.148;2023-08-07T15:49:04;30.80;44.60
19248;DHT22;9758;48.640;8.148;2023-08-07T15:51:32;30.90;43.20